METAR rapporten vliegvelden

   
EHAM - Amsterdam
Gewijzigd: 20-05-2018 17:25
Helder  
Helder  
   Wind: NO 11.1 km/h
Wind: NO 11.1 km/h
Temperatuur: 22°C
Dauwpunt: 12°C
Vochtigheid: 53%
Barometer: 1020 hPa
Zicht: meer dan 10 km
Bewolking: Helder
EHAM 201525Z 04006KT 360V100 CAVOK 22/12 Q1020 NOSIG
EHBK - Maastricht
Gewijzigd: 20-05-2018 17:25
Gedeeltelijk bewolkt  
Gedeeltelijk bewolkt  
   Wind: ONO 18.5 km/h
Wind: ONO 18.5 km/h
Temperatuur: 24°C
Dauwpunt: 11°C
Vochtigheid: 44%
Barometer: 1019 hPa
Bewolking: Gedeeltelijk bewolkt
Zicht: meer dan 10 km
Bewolking: Gedeeltelijk bewolkt
EHBK 201525Z AUTO 06010KT 010V090 9999 NSC 24/11 Q1019 TEMPO 6000 SHRA SCT050CB
ELLX - Luxemburg
Gewijzigd: 20-05-2018 17:20
Light Showers, Regen, Grotendeels bewolkt  
Light Showers, Regen, Grotendeels bewolkt  
   Wind: NO 22.2 km/h
Wind: NO 22.2 km/h
Temperatuur: 14°C
Dauwpunt: 12°C
Vochtigheid: 88%
Barometer: 1019 hPa
Bewolking: Grotendeels bewolkt
Zicht: meer dan 10 km
Bewolking: Licht bewolkt 2500 ft,
Grotendeels bewolkt 5000 ft
ELLX 201520Z 04012KT 9999 -SHRA FEW025 BKN050 14/12 Q1019 TEMPO SHRA
EDDL - Dusseldorf
Gewijzigd: 20-05-2018 17:20
Licht bewolkt  
Licht bewolkt  
   Wind: NO 24.1 km/h
Wind: NO 24.1 km/h
Temperatuur: 25°C
Dauwpunt: 10°C
Vochtigheid: 39%
Barometer: 1019 hPa
Bewolking: Licht bewolkt
Zicht: meer dan 10 km
Bewolking: Licht bewolkt 5000 ft
EDDL 201520Z 05013KT 020V090 9999 FEW050TCU 25/10 Q1019 NOSIG
  

Script ontwikkeld door  Saratoga-weather.org Aangepast voor de template door  Weerstation Leuven